createdAt,value
2018-05-10T00:00:02.023Z,94779
2018-05-10T00:02:31.031Z,94784
2018-05-10T00:05:00.079Z,94783
2018-05-10T00:07:29.430Z,94774
2018-05-10T00:09:59.197Z,94780
2018-05-10T00:12:28.651Z,94784
2018-05-10T00:14:57.772Z,94775
2018-05-10T00:17:27.143Z,94775
2018-05-10T00:19:56.400Z,94773
2018-05-10T00:22:26.346Z,94759
2018-05-10T00:24:56.155Z,94758
2018-05-10T00:27:25.435Z,94767
2018-05-10T00:29:54.609Z,94762
2018-05-10T00:32:23.641Z,94759
2018-05-10T00:34:52.825Z,94765
2018-05-10T00:37:21.931Z,94762
2018-05-10T00:39:50.971Z,94758
2018-05-10T00:42:19.987Z,94756
2018-05-10T00:44:49.976Z,94753
2018-05-10T00:47:18.983Z,94752
2018-05-10T00:49:48.003Z,94752
2018-05-10T00:54:54.016Z,94761
2018-05-10T00:57:23.025Z,94762
2018-05-10T00:59:52.068Z,94759
2018-05-10T01:02:21.859Z,94754
2018-05-10T01:04:50.924Z,94755
2018-05-10T01:07:19.947Z,94755
2018-05-10T01:09:49.031Z,94755
2018-05-10T01:12:18.076Z,94757
2018-05-10T01:14:47.100Z,94765
2018-05-10T01:17:16.163Z,94757
2018-05-10T01:19:45.187Z,94799
2018-05-10T01:22:14.200Z,94754
2018-05-10T01:24:43.282Z,94755
2018-05-10T01:27:12.370Z,94760
2018-05-10T01:29:41.359Z,94750
2018-05-10T01:32:10.402Z,94754
2018-05-10T01:34:40.219Z,94757
2018-05-10T01:37:09.239Z,94767
2018-05-10T01:39:38.349Z,94764
2018-05-10T01:42:07.353Z,94764
2018-05-10T01:44:36.414Z,94763
2018-05-10T01:47:05.427Z,94765
2018-05-10T01:49:34.448Z,94760
2018-05-10T01:52:03.510Z,94803
2018-05-10T01:54:32.549Z,94763
2018-05-10T01:57:01.565Z,94761
2018-05-10T01:59:31.383Z,94760
2018-05-10T02:02:00.394Z,94768
2018-05-10T02:04:29.436Z,94768
2018-05-10T02:06:58.451Z,94772
2018-05-10T02:09:27.516Z,94772
2018-05-10T02:11:56.531Z,94774
2018-05-10T02:14:26.337Z,94774
2018-05-10T02:16:55.375Z,94775
2018-05-10T02:19:24.445Z,94775
2018-05-10T02:21:53.479Z,94769
2018-05-10T02:24:22.540Z,94774
2018-05-10T02:26:51.596Z,94778
2018-05-10T02:29:20.616Z,94784
2018-05-10T02:31:49.668Z,94787
2018-05-10T02:34:18.700Z,94780
2018-05-10T02:36:47.759Z,94784
2018-05-10T02:39:16.816Z,94783
2018-05-10T02:41:45.871Z,94774
2018-05-10T02:44:15.652Z,94775
2018-05-10T02:46:44.671Z,94776
2018-05-10T02:49:14.488Z,94778
2018-05-10T02:51:43.512Z,94780
2018-05-10T02:54:12.528Z,94775
2018-05-10T02:56:41.579Z,94778
2018-05-10T02:59:10.622Z,94770
2018-05-10T03:01:39.679Z,94781
2018-05-10T03:04:08.704Z,94775
2018-05-10T03:06:37.753Z,94779
2018-05-10T03:09:06.773Z,94774
2018-05-10T03:11:35.832Z,94778
2018-05-10T03:14:05.620Z,94787
2018-05-10T03:16:34.672Z,94789
2018-05-10T03:19:03.678Z,94791
2018-05-10T03:21:32.786Z,94781
2018-05-10T03:24:01.800Z,94781
2018-05-10T03:26:30.855Z,94784
2018-05-10T03:28:59.883Z,94786
2018-05-10T03:31:28.937Z,94786
2018-05-10T03:33:57.983Z,94786
2018-05-10T03:36:27.024Z,94792
2018-05-10T03:38:56.072Z,94788
2018-05-10T03:41:25.846Z,94792
2018-05-10T03:43:54.909Z,94789
2018-05-10T03:46:23.928Z,94785
2018-05-10T03:48:52.927Z,94792
2018-05-10T03:51:21.967Z,94798
2018-05-10T03:53:51.007Z,94802
2018-05-10T03:56:20.025Z,94802
2018-05-10T03:58:49.069Z,94809
2018-05-10T04:01:18.083Z,94812
2018-05-10T04:04:04.980Z,94806
2018-05-10T04:06:51.791Z,94811
2018-05-10T04:09:38.528Z,94812
2018-05-10T04:12:07.541Z,94814
2018-05-10T04:14:37.357Z,94811
2018-05-10T04:17:06.406Z,94812
2018-05-10T04:19:35.434Z,94816
2018-05-10T04:22:05.222Z,94818
2018-05-10T04:24:34.278Z,94817
2018-05-10T04:27:03.308Z,94813
2018-05-10T04:29:32.340Z,94820
2018-05-10T04:32:01.383Z,94826
2018-05-10T04:34:30.419Z,94823
2018-05-10T04:36:59.448Z,94824
2018-05-10T04:39:28.496Z,94822
2018-05-10T04:41:58.612Z,94825
2018-05-10T04:44:27.670Z,94826
2018-05-10T04:46:56.691Z,94829
2018-05-10T04:49:25.721Z,94827
2018-05-10T04:51:54.768Z,94833
2018-05-10T04:54:23.815Z,94826
2018-05-10T04:56:52.831Z,94839
2018-05-10T04:59:21.875Z,94822
2018-05-10T05:01:50.928Z,94826
2018-05-10T05:04:19.969Z,94829
2018-05-10T05:06:49.747Z,94829
2018-05-10T05:09:18.801Z,94897
2018-05-10T05:11:47.872Z,94825
2018-05-10T05:14:17.655Z,94831
2018-05-10T05:16:46.701Z,94829
2018-05-10T05:19:15.725Z,94834
2018-05-10T05:21:44.796Z,94828
2018-05-10T05:24:13.819Z,94826
2018-05-10T05:26:42.907Z,94829
2018-05-10T05:29:11.961Z,94829
2018-05-10T05:31:41.066Z,94829
2018-05-10T05:34:10.129Z,94828
2018-05-10T05:36:39.187Z,94836
2018-05-10T05:39:08.264Z,94831
2018-05-10T05:41:37.280Z,94833
2018-05-10T05:44:06.380Z,94837
2018-05-10T05:46:37.332Z,94869
2018-05-10T05:49:07.164Z,94835
2018-05-10T05:51:36.939Z,94839
2018-05-10T05:54:06.028Z,94843
2018-05-10T05:56:35.124Z,94873
2018-05-10T05:59:04.248Z,94840
2018-05-10T06:01:33.284Z,94836
2018-05-10T06:04:02.354Z,94840
2018-05-10T06:06:31.382Z,94841
2018-05-10T06:09:00.442Z,94853
2018-05-10T06:11:29.468Z,94847
2018-05-10T06:13:58.579Z,94847
2018-05-10T06:16:27.650Z,94848
2018-05-10T06:18:57.688Z,94859
2018-05-10T06:21:26.753Z,94857
2018-05-10T06:23:55.810Z,94861
2018-05-10T06:26:24.834Z,94864
2018-05-10T06:28:53.905Z,94858
2018-05-10T06:31:23.700Z,94856
2018-05-10T06:33:52.764Z,94857
2018-05-10T06:36:21.861Z,94857
2018-05-10T06:38:50.904Z,94863
2018-05-10T06:41:19.978Z,94864
2018-05-10T06:43:49.083Z,94862
2018-05-10T06:46:18.911Z,94861
2018-05-10T06:48:48.002Z,94857
2018-05-10T06:51:17.037Z,94859
2018-05-10T06:53:46.163Z,94863
2018-05-10T06:56:15.216Z,94863
2018-05-10T06:58:44.248Z,94866
2018-05-10T07:03:48.744Z,94867
2018-05-10T07:06:18.852Z,94872
2018-05-10T07:08:47.868Z,94869
2018-05-10T07:11:16.900Z,94865
2018-05-10T07:13:45.914Z,94868
2018-05-10T07:16:15.752Z,94875
2018-05-10T07:18:44.760Z,94875
2018-05-10T07:21:13.795Z,94875
2018-05-10T07:23:42.834Z,94890
2018-05-10T07:26:11.851Z,94882
2018-05-10T07:28:40.943Z,94897
2018-05-10T07:31:13.329Z,94889
2018-05-10T07:33:42.426Z,94891
2018-05-10T07:36:11.613Z,94897
2018-05-10T07:38:40.847Z,94901
2018-05-10T07:41:15.193Z,94898
2018-05-10T07:43:57.013Z,94912
2018-05-10T07:46:32.219Z,94907
2018-05-10T07:49:02.595Z,94920
2018-05-10T07:51:32.508Z,94920
2018-05-10T07:54:01.668Z,94919
2018-05-10T07:56:31.162Z,94921
2018-05-10T07:59:02.442Z,94917
2018-05-10T08:01:31.572Z,94919
2018-05-10T08:04:00.689Z,94932
2018-05-10T08:06:29.736Z,94935
2018-05-10T08:08:59.450Z,94931
2018-05-10T08:11:28.594Z,94954
2018-05-10T08:13:59.547Z,94946
2018-05-10T08:16:28.567Z,94960
2018-05-10T08:18:57.671Z,94953
2018-05-10T08:21:31.667Z,94960
2018-05-10T08:24:01.807Z,94973
2018-05-10T08:26:31.156Z,94973
2018-05-10T08:29:00.472Z,94974
2018-05-10T08:31:29.774Z,94976
2018-05-10T08:33:58.967Z,94979
2018-05-10T08:36:28.858Z,94983
2018-05-10T08:38:58.609Z,94982
2018-05-10T08:41:27.619Z,94989
2018-05-10T08:43:56.685Z,94989
2018-05-10T08:46:25.699Z,94990
2018-05-10T08:48:54.718Z,94995
2018-05-10T08:51:23.792Z,94991
2018-05-10T08:53:52.833Z,95001
2018-05-10T08:56:21.899Z,95003
2018-05-10T08:58:50.976Z,95007
2018-05-10T09:01:20.048Z,95006
2018-05-10T09:03:49.271Z,95016
2018-05-10T09:06:18.328Z,95015
2018-05-10T09:08:48.121Z,95018
2018-05-10T09:11:17.240Z,95018
2018-05-10T09:13:47.134Z,95017
2018-05-10T09:16:16.178Z,95012
2018-05-10T09:18:45.240Z,95021
2018-05-10T09:21:15.035Z,95029
2018-05-10T09:23:44.066Z,95017
2018-05-10T09:26:13.131Z,95017
2018-05-10T09:28:42.903Z,95023
2018-05-10T09:31:13.104Z,95034
2018-05-10T09:33:42.126Z,95040
2018-05-10T09:36:11.175Z,95035
2018-05-10T09:38:40.198Z,95032
2018-05-10T09:41:09.239Z,95049
2018-05-10T09:43:39.040Z,95054
2018-05-10T09:46:08.111Z,95058
2018-05-10T09:48:37.112Z,95069
2018-05-10T09:51:06.155Z,95060
2018-05-10T09:53:35.318Z,95069
2018-05-10T09:56:04.384Z,95064
2018-05-10T09:58:33.388Z,95069
2018-05-10T10:01:02.440Z,95075
2018-05-10T10:03:31.683Z,95087
2018-05-10T10:06:00.718Z,95093
2018-05-10T10:08:30.253Z,95097
2018-05-10T10:10:59.392Z,95092
2018-05-10T10:13:28.431Z,95112
2018-05-10T10:15:59.372Z,95120
2018-05-10T10:18:29.024Z,95123
2018-05-10T10:20:58.650Z,95117
2018-05-10T10:23:27.648Z,95117
2018-05-10T10:25:57.465Z,95120
2018-05-10T10:28:26.843Z,95127
2018-05-10T10:30:55.983Z,95129
2018-05-10T10:33:25.107Z,95131
2018-05-10T10:35:54.263Z,95126
2018-05-10T10:38:23.954Z,95152
2018-05-10T10:40:53.419Z,95144
2018-05-10T10:43:23.855Z,95151
2018-05-10T10:45:53.589Z,95155
2018-05-10T10:48:23.201Z,95161
2018-05-10T10:50:52.994Z,95168
2018-05-10T10:53:22.597Z,95180
2018-05-10T10:55:52.250Z,95202
2018-05-10T10:58:21.816Z,95175
2018-05-10T11:00:52.365Z,95182
2018-05-10T11:03:22.701Z,95191
2018-05-10T11:05:53.511Z,95205
2018-05-10T11:08:22.837Z,95195
2018-05-10T11:10:52.542Z,95184
2018-05-10T11:13:23.048Z,95181
2018-05-10T11:15:52.417Z,95195
2018-05-10T11:18:22.806Z,95197
2018-05-10T11:20:51.966Z,95197
2018-05-10T11:23:21.699Z,95211
2018-05-10T11:25:50.728Z,95207
2018-05-10T11:28:19.789Z,95213
2018-05-10T11:30:48.807Z,95208
2018-05-10T11:33:18.698Z,95211
2018-05-10T11:35:48.105Z,95216
2018-05-10T11:38:17.106Z,95217
2018-05-10T11:40:46.897Z,95221
2018-05-10T11:43:15.957Z,95228
2018-05-10T11:45:44.983Z,95216
2018-05-10T11:50:58.531Z,95212
2018-05-10T11:53:27.587Z,95211
2018-05-10T11:55:56.603Z,95211
2018-05-10T11:58:25.657Z,95205
2018-05-10T12:00:54.667Z,95206
2018-05-10T12:03:23.716Z,95216
2018-05-10T12:05:53.004Z,95220
2018-05-10T12:08:22.042Z,95229
2018-05-10T12:10:51.060Z,95221
2018-05-10T12:13:20.109Z,95226
2018-05-10T12:15:49.106Z,95223
2018-05-10T12:18:18.912Z,95225
2018-05-10T12:20:47.920Z,95232
2018-05-10T12:23:17.733Z,95236
2018-05-10T12:25:46.763Z,95239
2018-05-10T12:28:15.793Z,95251
2018-05-10T12:30:44.808Z,95242
2018-05-10T12:33:13.899Z,95239
2018-05-10T12:35:43.675Z,95243
2018-05-10T12:38:12.702Z,95236
2018-05-10T12:40:50.127Z,95239
2018-05-10T12:43:20.082Z,95247
2018-05-10T12:45:49.216Z,95235
2018-05-10T12:48:18.234Z,95230
2018-05-10T12:50:47.259Z,95229
2018-05-10T12:53:16.438Z,95236
2018-05-10T12:55:45.482Z,95231
2018-05-10T12:58:15.391Z,95238
2018-05-10T13:00:44.443Z,95227
2018-05-10T13:03:13.449Z,95228
2018-05-10T13:05:42.537Z,95223
2018-05-10T13:08:11.558Z,95227
2018-05-10T13:10:40.576Z,95238
2018-05-10T13:13:10.396Z,95242
2018-05-10T13:15:40.159Z,95243
2018-05-10T13:18:09.171Z,95246
2018-05-10T13:20:38.248Z,95196
2018-05-10T13:23:07.262Z,95267
2018-05-10T13:25:36.380Z,95259
2018-05-10T13:28:05.416Z,95269
2018-05-10T13:30:36.412Z,95263
2018-05-10T13:33:06.255Z,95274
2018-05-10T13:35:35.300Z,95271
2018-05-10T13:38:04.324Z,95273
2018-05-10T13:40:33.356Z,95275
2018-05-10T13:43:02.368Z,95279
2018-05-10T13:45:31.425Z,95293
2018-05-10T13:48:00.442Z,95277
2018-05-10T13:50:29.458Z,95279
2018-05-10T13:52:58.640Z,95288
2018-05-10T13:55:27.565Z,95282
2018-05-10T13:57:56.604Z,95298
2018-05-10T14:00:25.613Z,95299
2018-05-10T14:02:54.641Z,95298
2018-05-10T14:05:23.655Z,95289
2018-05-10T14:07:53.480Z,95299
2018-05-10T14:10:22.495Z,95292
2018-05-10T14:12:51.490Z,95305
2018-05-10T14:15:20.558Z,95304
2018-05-10T14:17:49.985Z,95306
2018-05-10T14:20:19.007Z,95300
2018-05-10T14:22:48.107Z,95309
2018-05-10T14:25:17.169Z,95308
2018-05-10T14:27:46.315Z,95309
2018-05-10T14:30:15.413Z,95319
2018-05-10T14:32:45.706Z,95323
2018-05-10T14:35:14.747Z,95320
2018-05-10T14:37:43.933Z,95320
2018-05-10T14:40:14.819Z,95330
2018-05-10T14:42:43.991Z,95338
2018-05-10T14:45:13.126Z,95343
2018-05-10T14:47:42.172Z,95347
2018-05-10T14:50:11.259Z,95354
2018-05-10T14:52:41.060Z,95353
2018-05-10T14:55:10.866Z,95356
2018-05-10T14:57:39.916Z,95359
2018-05-10T15:00:08.931Z,95362
2018-05-10T15:02:41.531Z,95375
2018-05-10T15:05:11.333Z,95377
2018-05-10T15:07:40.534Z,95382
2018-05-10T15:10:12.484Z,95395
2018-05-10T15:12:41.520Z,95394
2018-05-10T15:15:10.647Z,95418
2018-05-10T15:17:41.629Z,95418
2018-05-10T15:20:10.791Z,95428
2018-05-10T15:22:40.453Z,95427
2018-05-10T15:25:10.278Z,95435
2018-05-10T15:27:40.321Z,95432
2018-05-10T15:30:09.395Z,95432
2018-05-10T15:32:38.416Z,95445
2018-05-10T15:35:07.470Z,95444
2018-05-10T15:37:37.268Z,95441
2018-05-10T15:40:07.110Z,95444
2018-05-10T15:42:36.131Z,95450
2018-05-10T15:45:05.207Z,95460
2018-05-10T15:47:34.234Z,95463
2018-05-10T15:50:03.242Z,95462
2018-05-10T15:52:32.312Z,95467
2018-05-10T15:55:01.337Z,95474
2018-05-10T15:57:30.387Z,95481
2018-05-10T15:59:59.467Z,95480
2018-05-10T16:02:28.561Z,95497
2018-05-10T16:04:57.585Z,95498
2018-05-10T16:07:26.637Z,95519
2018-05-10T16:09:56.494Z,95519
2018-05-10T16:12:25.946Z,95522
2018-05-10T16:14:55.164Z,95539
2018-05-10T16:17:24.304Z,95530
2018-05-10T16:19:53.770Z,95540
2018-05-10T16:22:24.312Z,95533
2018-05-10T16:24:54.372Z,95538
2018-05-10T16:27:23.652Z,95542
2018-05-10T16:29:52.799Z,95553
2018-05-10T16:32:23.303Z,95577
2018-05-10T16:34:52.442Z,95568
2018-05-10T16:37:21.511Z,95578
2018-05-10T16:39:50.532Z,95581
2018-05-10T16:42:19.564Z,95592
2018-05-10T16:44:48.574Z,95529
2018-05-10T16:47:18.430Z,95600
2018-05-10T16:49:47.450Z,95604
2018-05-10T16:52:16.459Z,95609
2018-05-10T16:54:45.500Z,95608
2018-05-10T16:57:14.516Z,95611
2018-05-10T16:59:43.591Z,95610
2018-05-10T17:02:12.768Z,95623
2018-05-10T17:04:42.652Z,95625
2018-05-10T17:07:12.435Z,95644
2018-05-10T17:09:41.504Z,95643
2018-05-10T17:12:10.623Z,95645
2018-05-10T17:14:40.214Z,95652
2018-05-10T17:17:09.489Z,95650
2018-05-10T17:19:39.397Z,95653
2018-05-10T17:22:08.508Z,95659
2018-05-10T17:24:38.105Z,95659
2018-05-10T17:27:07.645Z,95663
2018-05-10T17:29:37.486Z,95974
2018-05-10T17:32:06.543Z,95666
2018-05-10T17:34:35.587Z,95694
2018-05-10T17:37:05.366Z,95694
2018-05-10T17:39:34.404Z,95703
2018-05-10T17:42:03.467Z,95695
2018-05-10T17:44:32.503Z,95685
2018-05-10T17:47:01.529Z,95704
2018-05-10T17:49:30.611Z,95708
2018-05-10T17:51:59.628Z,95703
2018-05-10T17:54:28.657Z,95710
2018-05-10T17:56:57.706Z,95707
2018-05-10T17:59:26.769Z,95718
2018-05-10T18:01:55.788Z,95725
2018-05-10T18:04:24.843Z,95729
2018-05-10T18:06:53.876Z,95735
2018-05-10T18:09:22.950Z,95732
2018-05-10T18:11:51.987Z,95755
2018-05-10T18:14:20.995Z,95747
2018-05-10T18:16:50.134Z,95762
2018-05-10T18:19:19.084Z,95760
2018-05-10T18:21:48.577Z,95775
2018-05-10T18:24:17.596Z,95779
2018-05-10T18:26:46.599Z,95781
2018-05-10T18:29:15.658Z,95775
2018-05-10T18:31:44.744Z,95788
2018-05-10T18:34:13.767Z,95790
2018-05-10T18:36:43.569Z,95795
2018-05-10T18:39:13.780Z,95808
2018-05-10T18:41:43.399Z,95803
2018-05-10T18:44:12.432Z,95812
2018-05-10T18:46:41.519Z,95813
2018-05-10T18:49:10.535Z,95812
2018-05-10T18:51:40.376Z,95823
2018-05-10T18:54:09.431Z,95825
2018-05-10T18:56:38.612Z,95825
2018-05-10T18:59:07.641Z,95832
2018-05-10T19:01:36.692Z,95838
2018-05-10T19:04:05.935Z,95836
2018-05-10T19:06:35.016Z,95859
2018-05-10T19:09:04.047Z,95850
2018-05-10T19:11:34.566Z,95854
2018-05-10T19:14:06.824Z,95867
2018-05-10T19:16:36.793Z,95862
2018-05-10T19:19:05.807Z,95871
2018-05-10T19:21:34.857Z,95873
2018-05-10T19:24:03.966Z,95877
2018-05-10T19:26:33.159Z,95891
2018-05-10T19:29:02.156Z,95884
2018-05-10T19:31:31.198Z,95888
2018-05-10T19:34:00.229Z,95893
2018-05-10T19:36:29.315Z,95892
2018-05-10T19:38:59.129Z,95892
2018-05-10T19:41:28.227Z,95901
2018-05-10T19:43:58.011Z,95907
2018-05-10T19:46:27.080Z,95907
2018-05-10T19:48:56.739Z,95905
2018-05-10T19:51:25.827Z,95914
2018-05-10T19:53:54.837Z,95914
2018-05-10T19:56:24.026Z,95915
2018-05-10T19:58:53.258Z,95928
2018-05-10T20:01:22.284Z,95929
2018-05-10T20:03:51.377Z,95936
2018-05-10T20:06:20.475Z,95932
2018-05-10T20:08:49.555Z,95926
2018-05-10T20:11:18.699Z,95925
2018-05-10T20:13:47.853Z,95933
2018-05-10T20:16:16.821Z,95935
2018-05-10T20:18:45.879Z,95937
2018-05-10T20:21:14.979Z,95947
2018-05-10T20:23:44.554Z,95948
2018-05-10T20:26:14.669Z,95951
2018-05-10T20:28:44.575Z,95950
2018-05-10T20:31:14.667Z,95962
2018-05-10T20:33:44.213Z,95961
2018-05-10T20:36:14.407Z,95956
2018-05-10T20:38:43.545Z,95952
2018-05-10T20:41:13.721Z,95956
2018-05-10T20:43:43.285Z,95953
2018-05-10T20:46:12.470Z,95956
2018-05-10T20:48:42.039Z,95981
2018-05-10T20:51:11.225Z,95957
2018-05-10T20:53:40.277Z,95964
2018-05-10T20:56:09.975Z,95961
2018-05-10T20:58:39.116Z,95966
2018-05-10T21:01:08.647Z,95963
2018-05-10T21:03:38.254Z,95961
2018-05-10T21:06:08.299Z,95972
2018-05-10T21:08:37.930Z,95975
2018-05-10T21:11:07.061Z,95976
2018-05-10T21:13:36.908Z,95987
2018-05-10T21:16:07.151Z,95983
2018-05-10T21:18:36.735Z,95992
2018-05-10T21:21:06.907Z,95988
2018-05-10T21:23:37.094Z,95996
2018-05-10T21:26:06.998Z,95999
2018-05-10T21:28:37.605Z,95998
2018-05-10T21:31:07.334Z,96005
2018-05-10T21:33:36.573Z,96009
2018-05-10T21:36:05.882Z,96014
2018-05-10T21:38:35.672Z,96013
2018-05-10T21:41:05.520Z,96013
2018-05-10T21:43:35.133Z,96029
2018-05-10T21:46:04.295Z,96018
2018-05-10T21:48:33.572Z,96022
2018-05-10T21:51:04.737Z,96018
2018-05-10T21:53:34.143Z,96023
2018-05-10T21:56:04.398Z,96028
2018-05-10T21:58:33.585Z,96028
2018-05-10T22:05:50.672Z,96030
2018-05-10T22:08:20.983Z,96032
2018-05-10T22:10:52.512Z,96029
2018-05-10T22:13:21.761Z,96035
2018-05-10T22:15:51.369Z,96042
2018-05-10T22:18:20.628Z,96034
2018-05-10T22:20:52.751Z,96039
2018-05-10T22:23:21.788Z,96045
2018-05-10T22:25:51.112Z,96035
2018-05-10T22:28:21.957Z,96049
2018-05-10T22:30:52.175Z,96038
2018-05-10T22:33:21.269Z,96040
2018-05-10T22:35:50.282Z,96041
2018-05-10T22:38:19.319Z,96039
2018-05-10T22:40:48.567Z,96046
2018-05-10T22:43:17.603Z,96044
2018-05-10T22:45:46.615Z,96040
2018-05-10T22:48:16.570Z,96035
2018-05-10T22:50:45.708Z,96025
2018-05-10T22:53:14.930Z,96035
2018-05-10T22:55:43.971Z,96026
2018-05-10T22:58:12.999Z,96029
2018-05-10T23:00:42.046Z,96066
2018-05-10T23:03:11.053Z,96025
2018-05-10T23:05:40.403Z,96034
2018-05-10T23:08:09.426Z,96029
2018-05-10T23:10:38.450Z,96025
2018-05-10T23:13:07.472Z,96029
2018-05-10T23:15:36.519Z,96019
2018-05-10T23:18:05.535Z,96019
2018-05-10T23:20:34.575Z,96032
2018-05-10T23:23:03.597Z,96018
2018-05-10T23:25:32.635Z,96019
2018-05-10T23:28:01.650Z,96010
2018-05-10T23:30:30.691Z,96007
2018-05-10T23:32:59.711Z,96010
2018-05-10T23:35:28.762Z,96006
2018-05-10T23:37:57.981Z,96004
2018-05-10T23:40:27.320Z,95997
2018-05-10T23:42:57.093Z,95995
2018-05-10T23:45:26.094Z,95983
2018-05-10T23:47:55.124Z,95985
2018-05-10T23:50:24.136Z,95977
2018-05-10T23:52:53.171Z,95983
2018-05-10T23:55:22.219Z,95989
2018-05-10T23:57:51.225Z,95988
